Time;durP1;ratioP1;P1;durP2;ratioP2;P2;SDS_P1;SDS_P2;PMS_P1;PMS_P2;Temp;Humidity;BMP_temperature;BMP_pressure;BME280_temperature;BME280_humidity;BME280_pressure;Samples;Min_cycle;Max_cycle;Signal;HPM_P1;HPM_P2
2023/05/12 00:00:27;;;;;;;26.30;18.67;;;9.30;99.90;;;;;;6194339;23;20368;-90
2023/05/12 00:03:15;;;;;;;25.13;18.58;;;9.30;99.90;;;;;;6215481;23;20095;-90
2023/05/12 00:06:03;;;;;;;25.83;19.30;;;9.30;99.90;;;;;;6215019;23;20024;-90
2023/05/12 00:08:50;;;;;;;27.42;18.45;;;9.30;99.90;;;;;;6215398;23;20029;-90
2023/05/12 00:11:38;;;;;;;30.38;20.10;;;9.40;99.90;;;;;;6193962;23;20029;-90
2023/05/12 00:14:25;;;;;;;29.58;21.60;;;9.40;99.90;;;;;;6195069;23;20112;-89
2023/05/12 00:17:12;;;;;;;28.77;21.38;;;9.40;99.90;;;;;;6197944;23;20336;-89
2023/05/12 00:20:00;;;;;;;29.10;20.02;;;9.40;99.90;;;;;;6196201;23;20159;-91
2023/05/12 00:22:47;;;;;;;28.05;19.42;;;9.40;99.90;;;;;;6195434;23;20087;-90
2023/05/12 00:25:41;;;;;;;26.25;19.20;;;9.30;99.90;;;;;;6195446;23;20095;-90
2023/05/12 00:28:29;;;;;;;29.13;20.45;;;9.40;99.90;;;;;;6217396;23;20024;-90
2023/05/12 00:31:16;;;;;;;28.27;21.30;;;9.30;99.90;;;;;;6197045;23;20027;-91
2023/05/12 00:34:04;;;;;;;30.73;19.67;;;9.30;99.90;;;;;;6195241;23;20021;-90
2023/05/12 00:36:52;;;;;;;29.13;19.27;;;9.30;99.90;;;;;;6217821;23;20056;-91
2023/05/12 00:39:41;;;;;;;23.77;17.60;;;9.30;99.90;;;;;;6217749;23;20024;-91
2023/05/12 00:42:28;;;;;;;20.55;16.42;;;9.30;99.90;;;;;;6218771;23;20127;-89
2023/05/12 00:45:16;;;;;;;25.23;16.80;;;9.40;99.90;;;;;;6195691;23;20026;-89
2023/05/12 00:48:05;;;;;;;21.88;15.52;;;9.40;99.90;;;;;;6217603;23;20024;-89
2023/05/12 00:50:56;;;;;;;25.25;15.75;;;9.40;99.90;;;;;;6197309;23;20052;-89
2023/05/12 00:53:44;;;;;;;19.67;14.32;;;9.40;99.90;;;;;;6195062;23;20408;-89
2023/05/12 00:56:38;;;;;;;19.08;14.63;;;9.40;99.90;;;;;;6195661;23;20039;-90
2023/05/12 00:59:28;;;;;;;20.80;15.57;;;9.40;99.90;;;;;;6217579;23;20021;-90
2023/05/12 01:02:15;;;;;;;21.77;17.27;;;9.40;99.90;;;;;;6218597;23;20111;-89
2023/05/12 01:05:04;;;;;;;23.33;16.38;;;9.40;99.90;;;;;;6194654;23;20035;-90
2023/05/12 01:07:52;;;;;;;24.88;17.38;;;9.40;99.90;;;;;;6197608;23;20450;-89
2023/05/12 01:10:43;;;;;;;26.33;18.63;;;9.40;99.90;;;;;;6196426;23;20086;-89
2023/05/12 01:13:30;;;;;;;25.27;17.88;;;9.40;99.90;;;;;;6196472;23;20025;-89
2023/05/12 01:16:22;;;;;;;27.90;16.83;;;9.50;99.90;;;;;;6195958;23;20107;-90
2023/05/12 01:19:28;;;;;;;;;;;9.50;99.90;;;;;;6220189;23;20024;-90
2023/05/12 01:22:16;;;;;;;20.95;15.25;;;9.50;99.90;;;;;;6203541;23;19915;-89
2023/05/12 01:25:07;;;;;;;20.95;15.80;;;9.50;99.90;;;;;;6202497;23;20317;-90
2023/05/12 01:27:54;;;;;;;17.45;14.30;;;9.40;99.90;;;;;;6218432;23;20024;-90
2023/05/12 01:30:45;;;;;;;20.60;15.00;;;9.40;99.90;;;;;;6217301;23;20361;-90
2023/05/12 01:33:33;;;;;;;22.30;15.55;;;9.40;99.90;;;;;;6216989;23;20428;-90
2023/05/12 01:36:21;;;;;;;20.45;15.50;;;9.40;99.90;;;;;;6217736;23;20025;-89
2023/05/12 01:39:08;;;;;;;19.25;14.75;;;9.40;99.90;;;;;;6194804;23;20017;-90
2023/05/12 01:41:55;;;;;;;20.25;14.70;;;9.40;99.90;;;;;;6217567;23;20024;-90
2023/05/12 01:44:42;;;;;;;26.08;16.10;;;9.50;99.90;;;;;;6218281;23;20095;-91
2023/05/12 01:47:30;;;;;;;22.42;16.63;;;9.50;99.90;;;;;;6218303;23;20151;-90
2023/05/12 01:50:18;;;;;;;23.27;15.13;;;9.50;99.90;;;;;;6218958;23;20135;-90
2023/05/12 01:53:05;;;;;;;23.50;15.75;;;9.50;99.90;;;;;;6197361;23;20028;-91
2023/05/12 01:55:55;;;;;;;20.92;15.95;;;9.50;99.90;;;;;;6196386;23;20036;-90
2023/05/12 01:58:42;;;;;;;26.67;17.90;;;9.50;99.90;;;;;;6216176;23;20035;-89
2023/05/12 02:01:31;;;;;;;24.35;17.15;;;9.50;99.90;;;;;;6215484;23;20021;-89
2023/05/12 02:04:18;;;;;;;23.77;17.65;;;9.50;99.90;;;;;;6197343;23;20025;-90
2023/05/12 02:07:07;;;;;;;23.25;17.23;;;9.50;99.90;;;;;;6217685;23;20046;-89
2023/05/12 02:09:54;;;;;;;24.42;17.75;;;9.50;99.90;;;;;;6195755;23;20025;-89
2023/05/12 02:12:42;;;;;;;27.08;16.70;;;9.60;99.90;;;;;;6196029;23;20025;-90
2023/05/12 02:15:29;;;;;;;26.35;17.35;;;9.60;99.90;;;;;;6196952;23;20039;-89
2023/05/12 02:18:22;;;;;;;23.25;17.00;;;9.60;99.90;;;;;;6218405;23;20025;-89
2023/05/12 02:21:15;;;;;;;22.40;16.25;;;9.60;99.90;;;;;;6219374;23;20028;-89
2023/05/12 02:24:03;;;;;;;22.88;16.38;;;9.60;99.90;;;;;;6220243;23;20029;-89
2023/05/12 02:26:50;;;;;;;25.55;17.13;;;9.60;99.90;;;;;;6207072;23;20025;-86
2023/05/12 02:29:40;;;;;;;23.95;16.30;;;9.50;99.90;;;;;;6225881;23;20092;-88
2023/05/12 02:32:30;;;;;;;21.55;14.98;;;9.50;99.90;;;;;;6228491;23;20038;-88
2023/05/12 02:35:18;;;;;;;19.60;14.63;;;9.50;99.90;;;;;;6222376;23;20032;-88
2023/05/12 02:38:06;;;;;;;18.98;13.48;;;9.50;99.90;;;;;;6194421;23;20028;-89
2023/05/12 02:40:53;;;;;;;18.65;14.05;;;9.50;99.90;;;;;;6196024;23;20035;-90
2023/05/12 02:43:40;;;;;;;20.52;15.73;;;9.50;99.90;;;;;;6219958;23;20043;-90
2023/05/12 02:46:28;;;;;;;17.75;14.00;;;9.40;99.90;;;;;;6195762;23;20021;-90
2023/05/12 02:49:17;;;;;;;26.98;17.75;;;9.50;99.90;;;;;;6197602;23;20028;-90
2023/05/12 02:52:06;;;;;;;23.92;17.90;;;9.50;99.90;;;;;;6196112;23;20025;-89
2023/05/12 02:54:56;;;;;;;23.02;16.65;;;9.50;99.90;;;;;;6197999;23;20021;-91
2023/05/12 02:57:43;;;;;;;23.45;16.05;;;9.50;99.90;;;;;;6195415;23;20025;-90
2023/05/12 03:00:35;;;;;;;23.10;15.55;;;9.50;99.90;;;;;;6193817;23;20031;-89
2023/05/12 03:03:22;;;;;;;27.02;15.77;;;9.50;99.90;;;;;;6214841;23;20020;-89
2023/05/12 03:06:10;;;;;;;23.05;17.05;;;9.50;99.90;;;;;;6196078;23;20025;-89
2023/05/12 03:08:58;;;;;;;24.02;17.70;;;9.40;99.90;;;;;;6194659;23;20025;-90
2023/05/12 03:11:48;;;;;;;21.42;16.52;;;9.40;99.90;;;;;;6217604;23;20036;-90
2023/05/12 03:14:35;;;;;;;26.80;17.10;;;9.40;99.90;;;;;;6195930;23;20056;-91
2023/05/12 03:17:25;;;;;;;22.30;16.95;;;9.40;99.90;;;;;;6215604;23;20025;-89
2023/05/12 03:20:12;;;;;;;24.05;17.95;;;9.40;99.90;;;;;;6215862;23;20024;-90
2023/05/12 03:23:00;;;;;;;25.67;17.20;;;9.30;99.90;;;;;;6194863;23;20090;-90
2023/05/12 03:25:47;;;;;;;24.08;17.15;;;9.30;99.90;;;;;;6194634;23;20044;-90
2023/05/12 03:28:34;;;;;;;26.40;18.02;;;9.30;99.90;;;;;;6194445;23;20425;-89
2023/05/12 03:31:22;;;;;;;31.60;21.83;;;9.30;99.90;;;;;;6196693;23;20032;-90
2023/05/12 03:34:12;;;;;;;27.48;19.40;;;9.20;99.90;;;;;;6196822;23;20034;-91
2023/05/12 03:37:02;;;;;;;29.95;20.75;;;9.20;99.90;;;;;;6219344;23;20029;-90
2023/05/12 03:39:49;;;;;;;28.33;19.83;;;9.20;99.90;;;;;;6195176;23;20028;-88
2023/05/12 03:42:36;;;;;;;30.50;20.90;;;9.30;99.90;;;;;;6215443;23;20064;-90
2023/05/12 03:45:23;;;;;;;30.88;20.65;;;9.30;99.90;;;;;;6204686;23;20021;-90
2023/05/12 03:48:11;;;;;;;32.70;20.25;;;9.30;99.90;;;;;;6216221;23;20111;-90
2023/05/12 03:50:58;;;;;;;27.33;18.92;;;9.40;99.90;;;;;;6195177;23;20034;-90
2023/05/12 03:53:48;;;;;;;24.55;18.17;;;9.30;99.90;;;;;;6195439;23;20028;-91
2023/05/12 03:56:35;;;;;;;23.65;18.50;;;9.40;99.90;;;;;;6216754;23;20282;-90
2023/05/12 03:59:22;;;;;;;34.40;20.25;;;9.40;99.90;;;;;;6215512;23;20036;-91
2023/05/12 04:02:11;;;;;;;43.05;25.33;;;9.40;99.90;;;;;;6218197;23;20025;-89
2023/05/12 04:05:01;;;;;;;38.28;22.33;;;9.40;99.90;;;;;;6195522;23;20118;-89
2023/05/12 04:07:49;;;;;;;33.67;22.35;;;9.40;99.90;;;;;;6192357;23;20103;-89
2023/05/12 04:10:39;;;;;;;34.42;22.25;;;9.40;99.90;;;;;;6212977;23;20029;-87
2023/05/12 04:13:32;;;;;;;34.05;21.75;;;9.40;99.90;;;;;;6193736;23;20024;-87
2023/05/12 04:16:20;;;;;;;34.35;22.40;;;9.40;99.90;;;;;;6197371;23;20032;-91
2023/05/12 04:19:09;;;;;;;39.25;23.65;;;9.40;99.90;;;;;;6216379;23;20416;-89
2023/05/12 04:21:57;;;;;;;44.67;26.42;;;9.40;99.90;;;;;;6217254;23;20021;-89
2023/05/12 04:24:44;;;;;;;44.67;27.13;;;9.50;99.90;;;;;;6196074;23;20104;-89
2023/05/12 04:27:31;;;;;;;41.53;25.00;;;9.50;99.90;;;;;;6218231;23;20020;-88
2023/05/12 04:30:18;;;;;;;41.50;25.00;;;9.50;99.90;;;;;;6198733;23;20028;-90
2023/05/12 04:33:09;;;;;;;57.42;33.08;;;9.50;99.90;;;;;;6198796;23;20392;-89
2023/05/12 04:35:57;;;;;;;54.45;29.45;;;9.50;99.90;;;;;;6216814;23;20039;-88
2023/05/12 04:38:45;;;;;;;52.47;29.52;;;9.50;99.90;;;;;;6216984;23;20029;-87
2023/05/12 04:41:33;;;;;;;55.75;31.40;;;9.50;99.90;;;;;;6197482;23;20029;-90
2023/05/12 04:44:22;;;;;;;51.78;29.75;;;9.60;99.90;;;;;;6216864;23;20025;-87
2023/05/12 04:47:10;;;;;;;51.75;29.75;;;9.60;99.90;;;;;;6191918;23;20036;-87
2023/05/12 04:49:57;;;;;;;56.03;31.65;;;9.60;99.90;;;;;;6193722;23;20028;-89
2023/05/12 04:52:44;;;;;;;48.45;29.67;;;9.70;99.90;;;;;;6193581;23;20416;-90
2023/05/12 04:55:44;;;;;;;53.60;29.40;;;9.60;99.90;;;;;;6193956;23;20088;-91
2023/05/12 04:58:34;;;;;;;42.72;26.90;;;9.70;99.90;;;;;;6216454;23;20056;-91
2023/05/12 05:01:24;;;;;;;41.15;28.00;;;9.70;99.90;;;;;;6219072;23;20296;-92
2023/05/12 05:04:23;;;;;;;47.23;27.27;;;9.80;99.90;;;;;;6198083;23;20032;-90
2023/05/12 05:07:16;;;;;;;34.92;24.25;;;9.80;99.90;;;;;;6219686;23;20252;-90
2023/05/12 05:10:07;;;;;;;39.88;25.33;;;9.90;99.90;;;;;;6198715;23;20298;-89
2023/05/12 05:12:54;;;;;;;38.65;26.15;;;10.00;99.90;;;;;;6196701;23;20031;-90
2023/05/12 05:19:46;;;;;;;41.22;26.73;;;10.10;99.90;;;;;;6218725;23;20099;-90
2023/05/12 05:22:48;;;;;;;39.80;26.75;;;10.20;99.90;;;;;;6199190;23;20020;-90
2023/05/12 05:25:38;;;;;;;38.67;26.60;;;10.30;99.90;;;;;;6196995;23;20094;-91
2023/05/12 05:28:27;;;;;;;36.83;25.73;;;10.30;99.90;;;;;;6195919;23;20106;-87
2023/05/12 05:31:18;;;;;;;34.67;25.25;;;10.40;99.90;;;;;;6194260;23;20409;-87
2023/05/12 05:34:53;;;;;;;34.63;23.92;;;10.50;99.90;;;;;;6195954;23;20151;-90
2023/05/12 05:37:55;;;;;;;32.67;22.75;;;10.50;99.90;;;;;;6197541;23;20029;-90
2023/05/12 05:41:22;;;;;;;28.38;21.10;;;10.60;99.90;;;;;;6196679;23;20028;-93
2023/05/12 05:56:37;;;;;;;;;;;;;;;;;;;;;
2023/05/12 06:03:53;;;;;;;23.58;18.15;;;11.00;99.90;;;;;;6001416;23;19906;-88
2023/05/12 06:06:41;;;;;;;22.23;17.08;;;11.20;99.90;;;;;;6013291;23;20040;-86
2023/05/12 06:09:36;;;;;;;24.15;18.42;;;11.30;99.90;;;;;;6050008;23;20098;-89
2023/05/12 06:12:27;;;;;;;22.48;18.23;;;11.30;99.90;;;;;;6080502;23;20027;-89
2023/05/12 06:15:15;;;;;;;19.67;16.20;;;11.30;99.90;;;;;;6123268;23;20052;-87
2023/05/12 06:18:24;;;;;;;27.05;15.48;;;11.30;99.90;;;;;;6215360;23;20008;-91
2023/05/12 06:25:21;;;;;;;17.70;13.95;;;11.30;99.90;;;;;;6235567;23;20024;-92
2023/05/12 06:28:30;;;;;;;17.02;15.10;;;11.40;99.90;;;;;;6140679;23;20037;-91
2023/05/12 06:31:17;;;;;;;16.92;13.57;;;11.30;99.90;;;;;;6111400;23;20045;-91
2023/05/12 06:34:36;;;;;;;14.77;12.30;;;11.40;99.90;;;;;;6012607;23;20028;-88
2023/05/12 06:37:24;;;;;;;15.05;11.88;;;11.50;99.90;;;;;;6014204;23;20468;-90
2023/05/12 06:43:54;;;;;;;14.40;10.90;;;11.70;99.90;;;;;;6042338;23;20038;-89
2023/05/12 06:46:41;;;;;;;19.48;11.45;;;11.70;1.00;;;;;;6075792;23;20828;-85
2023/05/12 06:49:55;;;;;;;;;;;;;;;;;;;;;
2023/05/12 06:57:15;;;;;;;10.15;7.75;;;12.40;99.90;;;;;;6132570;23;20093;-88
2023/05/12 07:08:16;;;;;;;7.80;6.88;;;13.30;99.90;;;;;;6213303;23;20099;-88
2023/05/12 07:11:03;;;;;;;7.50;6.65;;;14.30;89.60;;;;;;6200759;23;20056;-86
2023/05/12 07:13:53;;;;;;;7.50;6.70;;;14.80;99.90;;;;;;6196934;23;20028;-85
2023/05/12 07:16:40;;;;;;;8.63;7.75;;;14.70;1.00;;;;;;6214262;23;20028;-85
2023/05/12 07:19:35;;;;;;;6.85;5.80;;;14.60;1.00;;;;;;6194548;23;20017;-86
2023/05/12 07:23:37;;;;;;;6.10;5.50;;;14.50;1.00;;;;;;6197281;23;20087;-91
2023/05/12 07:27:25;;;;;;;6.30;5.65;;;14.50;99.90;;;;;;6215487;23;20371;-89
2023/05/12 07:31:24;;;;;;;;;;;;;;;;;;;;;
2023/05/12 07:34:18;;;;;;;6.68;5.95;;;14.50;99.90;;;;;;6214668;23;20032;-87
2023/05/12 07:42:04;;;;;;;7.07;5.45;;;14.20;99.90;;;;;;6213202;23;20348;-93
2023/05/12 07:45:11;;;;;;;6.80;6.10;;;13.90;99.90;;;;;;6174826;23;20039;-88
2023/05/12 07:47:59;;;;;;;7.97;5.45;;;13.90;99.90;;;;;;6177053;23;20384;-87
2023/05/12 07:51:07;;;;;;;7.78;5.85;;;13.90;99.90;;;;;;6136429;23;20151;-86
2023/05/12 07:53:56;;;;;;;9.18;6.90;;;13.70;99.90;;;;;;6154416;23;20392;-86
2023/05/12 07:56:52;;;;;;;8.38;6.63;;;13.70;99.90;;;;;;6116850;23;20025;-83
2023/05/12 07:59:40;;;;;;;6.97;5.40;;;13.60;1.00;;;;;;6114684;23;20076;-85
2023/05/12 08:02:27;;;;;;;6.07;4.95;;;13.60;60.70;;;;;;6135130;23;20045;-86
2023/05/12 08:05:17;;;;;;;9.02;5.40;;;13.80;99.90;;;;;;6133933;23;20022;-89
2023/05/12 08:08:15;;;;;;;7.20;5.65;;;13.90;99.90;;;;;;6174105;23;20040;-89
2023/05/12 08:11:08;;;;;;;8.30;5.20;;;13.80;1.00;;;;;;6192543;23;20029;-87
2023/05/12 08:13:59;;;;;;;6.95;6.25;;;14.00;1.00;;;;;;6212701;23;20024;-85
2023/05/12 08:17:09;;;;;;;6.07;5.50;;;14.00;1.00;;;;;;6213915;23;20024;-85
2023/05/12 08:19:56;;;;;;;7.32;5.35;;;13.90;1.00;;;;;;6212830;23;20016;-86
2023/05/12 08:22:46;;;;;;;5.97;5.38;;;14.10;1.00;;;;;;6194404;23;20025;-86
2023/05/12 08:25:40;;;;;;;6.32;5.63;;;14.40;1.00;;;;;;6197304;23;20028;-87
2023/05/12 08:28:31;;;;;;;6.65;5.28;;;14.30;1.00;;;;;;6202295;23;20080;-87
2023/05/12 08:31:44;;;;;;;6.45;5.75;;;14.40;1.00;;;;;;6202032;23;20052;-89
2023/05/12 08:34:54;;;;;;;6.35;5.68;;;14.50;99.90;;;;;;6196601;23;20024;-88
2023/05/12 08:37:42;;;;;;;5.32;4.80;;;14.70;99.90;;;;;;6199361;23;20064;-86
2023/05/12 08:40:33;;;;;;;5.93;5.32;;;14.80;99.90;;;;;;6196864;23;20098;-85
2023/05/12 08:43:30;;;;;;;4.55;4.15;;;15.10;99.90;;;;;;6196317;23;20029;-86
2023/05/12 08:46:27;;;;;;;4.13;3.72;;;15.10;99.90;;;;;;6218902;23;20045;-90
2023/05/12 08:49:19;;;;;;;4.22;3.45;;;15.20;99.90;;;;;;6197976;23;20312;-88
2023/05/12 08:52:11;;;;;;;3.83;3.42;;;15.50;99.90;;;;;;6216971;23;20702;-85
2023/05/12 08:55:03;;;;;;;5.95;3.13;;;15.70;99.90;;;;;;6228563;23;20028;-88
2023/05/12 08:57:51;;;;;;;6.82;2.78;;;16.00;99.90;;;;;;6209208;23;20387;-88
2023/05/12 09:00:50;;;;;;;;;;;;;;;;;;;;;
2023/05/12 09:04:03;;;;;;;2.75;2.20;;;16.60;1.00;;;;;;6231123;23;20373;-88
2023/05/12 09:06:54;;;;;;;3.65;2.50;;;16.60;1.00;;;;;;6218497;23;20028;-91
2023/05/12 09:10:03;;;;;;;3.08;2.80;;;16.30;1.00;;;;;;6201650;23;20308;-88
2023/05/12 09:13:06;;;;;;;3.00;2.70;;;15.90;1.00;;;;;;6193387;23;20398;-91
2023/05/12 09:16:11;;;;;;;2.80;2.60;;;15.80;1.00;;;;;;6212903;23;20025;-85
2023/05/12 09:19:11;;;;;;;2.53;2.33;;;15.60;1.00;;;;;;6195678;23;20036;-87
2023/05/12 09:22:00;;;;;;;2.63;2.35;;;15.70;1.00;;;;;;6214352;23;20021;-86
2023/05/12 09:24:48;;;;;;;2.53;2.33;;;15.50;1.00;;;;;;6195709;23;20095;-89
2023/05/12 09:27:36;;;;;;;2.63;2.42;;;15.30;1.00;;;;;;6216195;23;20025;-86
2023/05/12 09:30:30;;;;;;;5.40;3.38;;;15.30;1.00;;;;;;6193720;23;20199;-86
2023/05/12 09:33:21;;;;;;;2.92;2.50;;;15.40;1.00;;;;;;6217674;23;20324;-85
2023/05/12 09:36:09;;;;;;;2.00;1.90;;;15.50;1.00;;;;;;6196241;23;20038;-85
2023/05/12 09:39:03;;;;;;;2.03;1.92;;;15.50;1.00;;;;;;6194718;23;20025;-88
2023/05/12 09:42:06;;;;;;;2.25;2.03;;;15.60;1.00;;;;;;6196852;23;20160;-89
2023/05/12 09:45:09;;;;;;;2.97;1.73;;;15.70;1.00;;;;;;6221150;23;20020;-86
2023/05/12 09:48:09;;;;;;;2.72;1.88;;;16.10;1.00;;;;;;6215170;23;20067;-86
2023/05/12 09:50:57;;;;;;;4.05;1.50;;;16.50;1.00;;;;;;6194222;23;20112;-90
2023/05/12 09:53:50;;;;;;;2.42;1.27;;;17.10;1.00;;;;;;6193198;23;20060;-90
2023/05/12 09:56:41;;;;;;;1.27;1.17;;;17.70;99.90;;;;;;6215214;23;20039;-86
2023/05/12 09:59:38;;;;;;;2.35;1.48;;;18.30;99.90;;;;;;6194424;23;20032;-88
2023/05/12 10:03:09;;;;;;;1.52;1.42;;;18.60;99.90;;;;;;6202147;23;20024;-89
2023/05/12 10:05:59;;;;;;;1.42;1.08;;;17.30;99.90;;;;;;6218156;23;20039;-90
2023/05/12 10:09:24;;;;;;;1.17;1.08;;;17.40;99.90;;;;;;6215820;23;20568;-89
2023/05/12 10:12:15;;;;;;;1.50;1.00;;;18.00;99.90;;;;;;6193984;23;20407;-92
2023/05/12 10:15:03;;;;;;;1.48;1.08;;;18.90;99.90;;;;;;6217467;23;20115;-89
2023/05/12 10:17:53;;;;;;;0.80;0.80;;;19.20;99.90;;;;;;6221615;23;20454;-91
2023/05/12 10:20:55;;;;;;;1.48;1.25;;;18.80;99.90;;;;;;6218899;23;20082;-87
2023/05/12 10:23:52;;;;;;;2.38;1.60;;;17.70;99.90;;;;;;6198877;23;20032;-91
2023/05/12 10:28:04;;;;;;;1.25;1.15;;;17.40;99.90;;;;;;6200463;23;20056;-90
2023/05/12 10:31:28;;;;;;;;;;;;;;;;;;;;;
2023/05/12 10:35:39;;;;;;;2.83;1.45;;;16.90;99.90;;;;;;6144190;23;20051;-85
2023/05/12 10:40:11;;;;;;;9.50;1.50;;;17.10;99.90;;;;;;6057830;23;20415;-88
2023/05/12 10:47:14;;;;;;;2.15;1.95;;;16.70;99.90;;;;;;6120842;23;20033;-91
2023/05/12 10:50:46;;;;;;;;;;;;;;;;;;;;;
2023/05/12 10:54:10;;;;;;;2.13;1.92;;;15.60;99.90;;;;;;6211340;23;20028;-87
2023/05/12 10:57:43;;;;;;;2.13;1.70;;;15.40;99.90;;;;;;6221050;23;20109;-91
2023/05/12 11:00:53;;;;;;;1.83;1.60;;;15.10;99.90;;;;;;6050013;23;20034;-90
2023/05/12 11:04:21;;;;;;;2.53;2.03;;;14.90;99.90;;;;;;6062581;23;20292;-89
2023/05/12 11:07:32;;;;;;;3.30;1.77;;;14.70;99.90;;;;;;6097066;23;20097;-84
2023/05/12 11:10:21;;;;;;;3.95;1.33;;;14.60;99.90;;;;;;6105251;23;20030;-89
2023/05/12 11:13:14;;;;;;;2.38;1.50;;;14.60;99.90;;;;;;6122929;23;20109;-87
2023/05/12 11:20:24;;;;;;;2.55;2.08;;;14.80;99.90;;;;;;6101888;23;20014;-88
2023/05/12 11:23:38;;;;;;;1.70;1.60;;;15.00;99.90;;;;;;6147397;23;20064;-90
2023/05/12 11:27:19;;;;;;;;;;;;;;;;;;;;;
2023/05/12 11:34:50;;;;;;;2.10;1.60;;;15.10;99.90;;;;;;6127730;23;20100;-92
2023/05/12 11:43:04;;;;;;;3.90;2.30;;;14.90;99.90;;;;;;6026182;23;20099;-91
2023/05/12 11:50:54;;;;;;;2.53;2.33;;;15.00;99.90;;;;;;6013318;23;20095;-91
2023/05/12 11:54:15;;;;;;;;;;;;;;;;;;;;;
2023/05/12 11:57:28;;;;;;;;;;;15.10;99.90;;;;;;6011764;23;20099;-91
2023/05/12 12:16:24;;;;;;;;;;;;;;;;;;;;;
2023/05/12 12:20:16;;;;;;;3.75;3.30;;;14.40;79.30;;;;;;6227278;23;20017;-91
2023/05/12 12:23:12;;;;;;;4.07;3.53;;;14.10;99.90;;;;;;6222969;23;20127;-87
2023/05/12 12:26:02;;;;;;;4.85;3.75;;;14.00;99.90;;;;;;6256959;22;20107;-88
2023/05/12 12:29:16;;;;;;;3.92;2.97;;;14.00;99.90;;;;;;6260679;22;20015;-88
2023/05/12 12:32:51;;;;;;;4.15;3.20;;;14.10;99.90;;;;;;6269993;22;20016;-91
2023/05/12 12:48:35;;;;;;;1.45;1.23;;;14.20;99.90;;;;;;5878190;24;20037;-93
2023/05/12 12:55:55;;;;;;;;;;;;;;;;;;;;;
2023/05/12 13:32:38;;;;;;;;;;;;;;;;;;;;;
2023/05/12 13:36:53;;;;;;;3.55;1.38;;;15.20;99.90;;;;;;6045366;23;20401;-90
2023/05/12 13:40:40;;;;;;;;;;;;;;;;;;;;;
2023/05/12 13:44:09;;;;;;;1.88;1.70;;;15.90;1.90;;;;;;6184698;23;20021;-88
2023/05/12 13:50:19;;;;;;;1.73;1.50;;;15.90;1.00;;;;;;6241409;22;20012;-87
2023/05/12 13:53:16;;;;;;;;;;;;;;;;;;;;;
2023/05/12 13:56:41;;;;;;;2.10;1.80;;;15.70;1.00;;;;;;6172997;23;20372;-85
2023/05/12 13:59:30;;;;;;;2.10;1.67;;;15.70;1.00;;;;;;6162708;23;20049;-86
2023/05/12 14:02:18;;;;;;;4.22;1.88;;;15.40;1.00;;;;;;6133449;23;20026;-86
2023/05/12 14:05:13;;;;;;;7.90;2.58;;;15.20;1.00;;;;;;6130346;23;20301;-87
2023/05/12 14:08:06;;;;;;;3.90;2.90;;;14.30;99.90;;;;;;6131046;23;20448;-85
2023/05/12 14:11:04;;;;;;;3.50;3.20;;;13.80;99.90;;;;;;6132293;23;20093;-83
2023/05/12 14:14:02;;;;;;;4.88;4.07;;;13.40;1.00;;;;;;6135460;23;20039;-85
2023/05/12 14:16:55;;;;;;;4.50;4.10;;;13.00;44.10;;;;;;6134556;23;20043;-84
2023/05/12 14:19:43;;;;;;;7.05;4.50;;;13.00;99.90;;;;;;6176848;22;20043;-85
2023/05/12 14:22:44;;;;;;;4.47;4.03;;;13.00;1.00;;;;;;6276750;22;20300;-85
2023/05/12 14:25:35;;;;;;;4.53;4.13;;;13.10;1.00;;;;;;6254542;22;20027;-85
2023/05/12 14:28:22;;;;;;;4.32;3.67;;;13.10;1.00;;;;;;6255592;22;20027;-86
2023/05/12 14:31:12;;;;;;;3.72;3.33;;;13.20;99.90;;;;;;6283020;22;20024;-86
2023/05/12 14:34:00;;;;;;;6.10;2.92;;;13.20;99.90;;;;;;6258175;22;20440;-84
2023/05/12 14:36:47;;;;;;;4.40;3.50;;;13.10;99.90;;;;;;6260222;22;20035;-84
2023/05/12 14:39:34;;;;;;;3.20;2.90;;;13.10;99.90;;;;;;6267599;22;20055;-85
2023/05/12 14:42:22;;;;;;;8.82;3.50;;;13.20;1.00;;;;;;6288037;22;20027;-85
2023/05/12 14:45:10;;;;;;;4.55;4.10;;;13.30;1.00;;;;;;6289425;22;20349;-88
2023/05/12 14:47:57;;;;;;;3.78;3.45;;;13.40;1.00;;;;;;6268693;22;20038;-90
2023/05/12 14:50:46;;;;;;;6.22;4.32;;;13.40;1.00;;;;;;6274372;22;20024;-87
2023/05/12 14:53:33;;;;;;;9.57;4.45;;;13.40;15.50;;;;;;6289317;22;20036;-87
2023/05/12 14:56:24;;;;;;;5.88;4.43;;;13.60;41.60;;;;;;6299476;22;20012;-88
2023/05/12 14:59:20;;;;;;;6.25;4.55;;;13.70;63.60;;;;;;6296819;22;20023;-86
2023/05/12 15:02:10;;;;;;;6.60;5.07;;;13.70;1.00;;;;;;6300962;22;20014;-85
2023/05/12 15:04:59;;;;;;;5.40;4.57;;;13.80;99.90;;;;;;6302612;22;20046;-85
2023/05/12 15:07:47;;;;;;;6.07;5.35;;;13.80;99.90;;;;;;6293573;22;20050;-89
2023/05/12 15:10:35;;;;;;;6.72;4.82;;;13.80;94.40;;;;;;6291310;22;20019;-88
2023/05/12 15:13:22;;;;;;;5.53;4.88;;;13.70;11.80;;;;;;6291729;22;20023;-89
2023/05/12 15:16:12;;;;;;;8.25;5.70;;;13.70;1.00;;;;;;6292540;22;20026;-87
2023/05/12 15:19:00;;;;;;;7.60;5.78;;;13.50;1.00;;;;;;6291752;22;20279;-89
2023/05/12 15:21:49;;;;;;;9.23;7.28;;;13.40;1.00;;;;;;6294501;22;20058;-88
2023/05/12 15:24:41;;;;;;;7.10;6.40;;;13.20;1.00;;;;;;6298742;22;20055;-88
2023/05/12 15:27:31;;;;;;;9.75;6.35;;;13.00;1.00;;;;;;6296127;22;20079;-89
2023/05/12 15:30:37;;;;;;;;;;;;;;;;;;;;;
2023/05/12 15:33:32;;;;;;;10.57;8.25;;;12.90;99.90;;;;;;6281853;22;20026;-89
2023/05/12 15:36:23;;;;;;;9.82;7.68;;;12.80;99.90;;;;;;6280932;22;20300;-87
2023/05/12 15:39:31;;;;;;;7.38;6.63;;;12.80;99.90;;;;;;6282144;22;20049;-85
2023/05/12 15:42:21;;;;;;;7.72;6.85;;;12.60;21.00;;;;;;6285829;22;20031;-88
2023/05/12 15:45:21;;;;;;;7.13;6.43;;;12.50;1.00;;;;;;6275342;22;20023;-89
2023/05/12 15:48:09;;;;;;;7.97;6.15;;;12.50;1.00;;;;;;6274381;22;20020;-87
2023/05/12 15:50:57;;;;;;;9.10;7.18;;;12.50;7.80;;;;;;6277866;22;20094;-86
2023/05/12 15:53:44;;;;;;;8.57;6.68;;;12.60;9.40;;;;;;6254844;22;20031;-86
2023/05/12 15:56:31;;;;;;;8.73;6.35;;;12.60;33.60;;;;;;6276931;22;20031;-87
2023/05/12 15:59:20;;;;;;;7.93;6.40;;;12.70;44.70;;;;;;6251888;22;20031;-87
2023/05/12 16:02:08;;;;;;;8.25;6.97;;;12.80;99.90;;;;;;6252046;22;20027;-85
2023/05/12 16:04:57;;;;;;;7.75;6.38;;;13.00;99.90;;;;;;6275733;22;20023;-86
2023/05/12 16:07:46;;;;;;;9.02;6.57;;;13.10;86.10;;;;;;6255387;22;20550;-87
2023/05/12 16:10:34;;;;;;;10.68;5.38;;;13.20;1.00;;;;;;6274609;22;20103;-86
2023/05/12 16:13:21;;;;;;;6.32;4.60;;;13.30;1.00;;;;;;6277761;22;20023;-88
2023/05/12 16:16:16;;;;;;;6.50;5.20;;;13.30;99.90;;;;;;6275536;22;20024;-89
2023/05/12 16:19:03;;;;;;;;;;;13.30;99.90;;;;;;6276187;22;20020;-87
2023/05/12 16:21:57;;;;;;;5.75;5.25;;;13.30;98.50;;;;;;6276909;22;19942;-84
2023/05/12 16:24:47;;;;;;;5.60;5.10;;;13.30;1.00;;;;;;6254502;22;20038;-89
2023/05/12 16:27:35;;;;;;;5.28;4.78;;;13.40;1.00;;;;;;6260738;22;20020;-84
2023/05/12 16:30:23;;;;;;;5.82;4.50;;;13.40;1.00;;;;;;6277213;22;20438;-86
2023/05/12 16:33:10;;;;;;;8.50;5.35;;;13.50;1.00;;;;;;6275741;22;20024;-87
2023/05/12 16:36:02;;;;;;;15.43;6.20;;;13.70;1.00;;;;;;6278264;22;20039;-87
2023/05/12 16:38:50;;;;;;;5.57;4.70;;;13.80;1.00;;;;;;6257159;22;20234;-88
2023/05/12 16:41:41;;;;;;;6.53;4.53;;;13.80;99.90;;;;;;6278284;22;20020;-86
2023/05/12 16:44:29;;;;;;;5.07;4.65;;;13.70;99.90;;;;;;6256360;22;20106;-86
2023/05/12 16:47:16;;;;;;;5.72;4.85;;;13.80;99.90;;;;;;6254977;22;20016;-85
2023/05/12 16:50:05;;;;;;;6.30;4.32;;;13.70;99.90;;;;;;6281084;22;20078;-86
2023/05/12 16:52:55;;;;;;;7.28;4.85;;;13.90;99.90;;;;;;6282490;22;20028;-87
2023/05/12 16:55:42;;;;;;;4.95;4.45;;;13.80;99.90;;;;;;6256717;22;20119;-83
2023/05/12 16:58:30;;;;;;;6.85;5.10;;;13.60;99.90;;;;;;6277766;22;20027;-82
2023/05/12 17:01:17;;;;;;;6.30;4.80;;;13.40;99.90;;;;;;6253473;22;20077;-86
2023/05/12 17:04:06;;;;;;;6.93;5.05;;;13.40;99.90;;;;;;6279236;22;20121;-87
2023/05/12 17:06:54;;;;;;;5.97;4.60;;;13.40;99.90;;;;;;6277754;22;20020;-89
2023/05/12 17:09:41;;;;;;;6.70;5.00;;;13.40;99.90;;;;;;6277311;22;20440;-88
2023/05/12 17:12:28;;;;;;;5.95;5.18;;;13.40;99.90;;;;;;6277549;22;20024;-88
2023/05/12 17:15:16;;;;;;;7.88;4.72;;;13.30;99.90;;;;;;6274981;22;20038;-82
2023/05/12 17:18:04;;;;;;;5.80;4.72;;;13.20;99.90;;;;;;6255406;22;20031;-88
2023/05/12 17:20:52;;;;;;;7.30;4.68;;;13.10;99.90;;;;;;6274197;22;20045;-85
2023/05/12 17:23:40;;;;;;;8.93;4.57;;;13.00;99.90;;;;;;6253708;22;20077;-89
2023/05/12 17:26:28;;;;;;;5.03;4.53;;;13.00;99.90;;;;;;6253716;22;20020;-84
2023/05/12 17:29:15;;;;;;;5.13;4.55;;;12.90;99.90;;;;;;6277726;22;20122;-89
2023/05/12 17:32:03;;;;;;;7.10;5.22;;;12.80;99.90;;;;;;6252727;22;20024;-84
2023/05/12 17:34:53;;;;;;;5.50;4.80;;;12.70;99.90;;;;;;6252227;22;20028;-86
2023/05/12 17:37:40;;;;;;;13.48;4.82;;;12.50;1.00;;;;;;6281928;22;20023;-88
2023/05/12 17:40:27;;;;;;;5.47;4.68;;;12.50;1.00;;;;;;6288491;22;20451;-86
2023/05/12 17:43:15;;;;;;;6.55;5.50;;;12.50;1.00;;;;;;6277116;22;20437;-85
2023/05/12 17:46:06;;;;;;;6.70;5.72;;;12.40;1.00;;;;;;6277453;22;20077;-87